Observation data for Plainview on 09/21/2020      Previous  Date  Next       Current Mesonet Observations  Soil Data  Daily Summary Page  Observations in Plain Language
KPVS 210500Z 14007KT 16/08 A302 RMK A01 T01590082  RH  062%=      5-min Rain = 0
KPVS 210505Z 14007KT 16/08 A302 RMK A01 T01580082  RH  062%=      5-min Rain = 0
KPVS 210510Z 14007KT 16/08 A3021 RMK A01 T01570082  RH  063%=      5-min Rain = 0
KPVS 210515Z 14007KT 16/08 A3021 RMK A01 T01560082  RH  063%=      5-min Rain = 0
KPVS 210520Z 14007KT 16/08 A3021 RMK A01 T01550082  RH  064%=      5-min Rain = 0
KPVS 210525Z 14006KT 15/08 A3021 RMK A01 T01530081  RH  064%=      5-min Rain = 0
KPVS 210530Z 14007KT 15/08 A3021 RMK A01 T01520082  RH  064%=      5-min Rain = 0
KPVS 210535Z 14007KT 15/08 A3021 RMK A01 T01520081  RH  065%=      5-min Rain = 0
KPVS 210540Z 14007KT 15/08 A3021 RMK A01 T01510082  RH  065%=      5-min Rain = 0
KPVS 210545Z 14007KT 15/08 A3021 RMK A01 T01510081  RH  065%=      5-min Rain = 0
KPVS 210550Z 14007KT 15/08 A3021 RMK A01 T01500081  RH  065%=      5-min Rain = 0
KPVS 210555Z 14007KT 15/08 A3021 RMK A01 T01490081  RH  065%=      5-min Rain = 0
KPVS 210600Z 14006KT 15/08 A3021 RMK A01 T01480081  RH  066%=      5-min Rain = 0
KPVS 210605Z 14005KT 15/08 A3021 RMK A01 T01460081  RH  066%=      5-min Rain = 0
KPVS 210610Z 13005KT 15/08 A3021 RMK A01 T01460081  RH  067%=      5-min Rain = 0
KPVS 210615Z 13005KT 14/08 A3021 RMK A01 T01430080  RH  068%=      5-min Rain = 0
KPVS 210620Z 13006KT 14/08 A3021 RMK A01 T01390079  RH  069%=      5-min Rain = 0
KPVS 210625Z 13006KT 14/08 A3021 RMK A01 T01360079  RH  070%=      5-min Rain = 0
KPVS 210630Z 13006KT 13/08 A3021 RMK A01 T01340079  RH  071%=      5-min Rain = 0
KPVS 210635Z 14006KT 14/08 A3021 RMK A01 T01350079  RH  071%=      5-min Rain = 0
KPVS 210640Z 14006KT 14/08 A3021 RMK A01 T01360079  RH  070%=      5-min Rain = 0
KPVS 210645Z 14007KT 14/08 A3021 RMK A01 T01370079  RH  070%=      5-min Rain = 0
KPVS 210650Z 13006KT 14/08 A3021 RMK A01 T01380079  RH  069%=      5-min Rain = 0
KPVS 210655Z 14006KT 14/08 A3021 RMK A01 T01380079  RH  069%=      5-min Rain = 0
KPVS 210700Z 14006KT 14/08 A3021 RMK A01 T01380079  RH  069%=      5-min Rain = 0
KPVS 210705Z 14006KT 14/08 A3021 RMK A01 T01380079  RH  069%=      5-min Rain = 0
KPVS 210710Z 13006KT 14/08 A3021 RMK A01 T01380079  RH  070%=      5-min Rain = 0
KPVS 210715Z 13006KT 14/08 A3021 RMK A01 T01360078  RH  070%=      5-min Rain = 0
KPVS 210720Z 13006KT 13/08 A3021 RMK A01 T01330078  RH  071%=      5-min Rain = 0
KPVS 210725Z 12005KT 13/08 A3021 RMK A01 T01300078  RH  072%=      5-min Rain = 0
KPVS 210730Z 12005KT 13/08 A3021 RMK A01 T01280078  RH  073%=      5-min Rain = 0
KPVS 210735Z 13005KT 13/08 A3021 RMK A01 T01270077  RH  074%=      5-min Rain = 0
KPVS 210740Z 13005KT 13/08 A3021 RMK A01 T01260078  RH  074%=      5-min Rain = 0
KPVS 210745Z 13006KT 13/08 A3021 RMK A01 T01270078  RH  074%=      5-min Rain = 0
KPVS 210750Z 13005KT 13/08 A3021 RMK A01 T01270078  RH  074%=      5-min Rain = 0
KPVS 210755Z 13005KT 13/08 A3021 RMK A01 T01260078  RH  074%=      5-min Rain = 0
KPVS 210800Z 13005KT 13/08 A3021 RMK A01 T01250078  RH  075%=      5-min Rain = 0
KPVS 210805Z 13005KT 13/08 A3021 RMK A01 T01250078  RH  075%=      5-min Rain = 0
KPVS 210810Z 13005KT 13/08 A3021 RMK A01 T01250079  RH  075%=      5-min Rain = 0
KPVS 210815Z 14005KT 13/08 A3021 RMK A01 T01260079  RH  075%=      5-min Rain = 0
KPVS 210820Z 13005KT 13/08 A3021 RMK A01 T01270079  RH  075%=      5-min Rain = 0
KPVS 210825Z 13006KT 13/08 A3021 RMK A01 T01270079  RH  075%=      5-min Rain = 0
KPVS 210830Z 13005KT 13/08 A3021 RMK A01 T01260079  RH  075%=      5-min Rain = 0
KPVS 210835Z 13006KT 13/08 A302 RMK A01 T01250079  RH  075%=      5-min Rain = 0
KPVS 210840Z 13007KT 12/08 A302 RMK A01 T01240079  RH  076%=      5-min Rain = 0
KPVS 210845Z 13007KT 12/08 A302 RMK A01 T01230079  RH  077%=      5-min Rain = 0
KPVS 210850Z 13007KT 12/08 A302 RMK A01 T01220079  RH  077%=      5-min Rain = 0
KPVS 210855Z 13007KT 12/08 A302 RMK A01 T01210078  RH  077%=      5-min Rain = 0
KPVS 210900Z 13006KT 12/08 A302 RMK A01 T01210078  RH  077%=      5-min Rain = 0
KPVS 210905Z 15004KT 12/08 A302 RMK A01 T01200078  RH  077%=      5-min Rain = 0
KPVS 210910Z 17003KT 12/08 A302 RMK A01 T01190078  RH  078%=      5-min Rain = 0
KPVS 210915Z 17002KT 12/08 A302 RMK A01 T01180077  RH  078%=      5-min Rain = 0
KPVS 210920Z 16001KT 12/08 A302 RMK A01 T01160076  RH  078%=      5-min Rain = 0
KPVS 210925Z 14001KT 11/08 A302 RMK A01 T01140075  RH  079%=      5-min Rain = 0
KPVS 210930Z 13002KT 11/08 A302 RMK A01 T01130075  RH  080%=      5-min Rain = 0
KPVS 210935Z 14002KT 11/07 A302 RMK A01 T01120074  RH  080%=      5-min Rain = 0
KPVS 210940Z 25001KT 10/06 A302 RMK A01 T01010064  RH  079%=      5-min Rain = 0
KPVS 210945Z 20000KT 10/07 A302 RMK A01 T00970068  RH  085%=      5-min Rain = 0
KPVS 210950Z 17001KT 10/07 A3021 RMK A01 T01000072  RH  085%=      5-min Rain = 0
KPVS 210955Z 16001KT 10/07 A3021 RMK A01 T01020072  RH  084%=      5-min Rain = 0
KPVS 211000Z 14002KT 10/07 A3021 RMK A01 T01030073  RH  084%=      5-min Rain = 0
KPVS 211005Z 14001KT 10/07 A3021 RMK A01 T01030071  RH  082%=      5-min Rain = 0
KPVS 211010Z 35000KT 10/07 A3021 RMK A01 T00980067  RH  083%=      5-min Rain = 0
KPVS 211015Z 34001KT 10/07 A3021 RMK A01 T00960069  RH  085%=      5-min Rain = 0
KPVS 211020Z 34001KT 10/07 A3021 RMK A01 T00980071  RH  086%=      5-min Rain = 0
KPVS 211025Z 34000KT 10/07 A3021 RMK A01 T00970069  RH  085%=      5-min Rain = 0
KPVS 211030Z 34001KT 10/07 A3021 RMK A01 T00950067  RH  085%=      5-min Rain = 0
KPVS 211035Z 34000KT 09/07 A3021 RMK A01 T00930068  RH  087%=      5-min Rain = 0
KPVS 211040Z 00000KT 09/07 A3021 RMK A01 T00930069  RH  087%=      5-min Rain = 0
KPVS 211045Z 00000KT 09/07 A3021 RMK A01 T00940070  RH  087%=      5-min Rain = 0
KPVS 211050Z 07000KT 09/07 A3021 RMK A01 T00930069  RH  087%=      5-min Rain = 0
KPVS 211055Z 07000KT 09/07 A3021 RMK A01 T00930069  RH  087%=      5-min Rain = 0
KPVS 211100Z 07000KT 09/07 A3021 RMK A01 T00910068  RH  087%=      5-min Rain = 0
KPVS 211105Z 07000KT 09/07 A3021 RMK A01 T00900068  RH  088%=      5-min Rain = 0
KPVS 211110Z 07000KT 09/07 A3021 RMK A01 T00900068  RH  089%=      5-min Rain = 0
KPVS 211115Z 07000KT 09/07 A3021 RMK A01 T00900069  RH  089%=      5-min Rain = 0
KPVS 211120Z 08000KT 09/07 A3021 RMK A01 T00910070  RH  089%=      5-min Rain = 0
KPVS 211125Z 09000KT 09/07 A3021 RMK A01 T00900068  RH  088%=      5-min Rain = 0
KPVS 211130Z 09001KT 09/07 A3021 RMK A01 T00900069  RH  089%=      5-min Rain = 0
KPVS 211135Z 09000KT 09/07 A3021 RMK A01 T00900068  RH  088%=      5-min Rain = 0
KPVS 211140Z 00000KT 09/07 A3022 RMK A01 T00870065  RH  088%=      5-min Rain = 0
KPVS 211145Z 00000KT 09/06 A3022 RMK A01 T00850063  RH  088%=      5-min Rain = 0
KPVS 211150Z 00000KT 08/06 A3022 RMK A01 T00840063  RH  089%=      5-min Rain = 0
KPVS 211155Z 00000KT 09/07 A3022 RMK A01 T00860067  RH  090%=      5-min Rain = 0
KPVS 211200Z 09000KT 09/07 A3022 RMK A01 T00870067  RH  089%=      5-min Rain = 0
KPVS 211205Z 09001KT 09/07 A3022 RMK A01 T00880069  RH  090%=      5-min Rain = 0
KPVS 211210Z 09001KT 09/07 A3022 RMK A01 T00890068  RH  089%=      5-min Rain = 0
KPVS 211215Z 09001KT 09/07 A3023 RMK A01 T00870066  RH  089%=      5-min Rain = 0
KPVS 211220Z 00000KT 08/06 A3023 RMK A01 T00840063  RH  089%=      5-min Rain = 0
KPVS 211225Z 00000KT 08/06 A3023 RMK A01 T00830064  RH  091%=      5-min Rain = 0
KPVS 211230Z 00000KT 08/06 A3023 RMK A01 T00820064  RH  091%=      5-min Rain = 0
KPVS 211235Z 09000KT 08/06 A3023 RMK A01 T00800062  RH  091%=      5-min Rain = 0
KPVS 211240Z 09001KT 08/07 A3023 RMK A01 T00820066  RH  092%=      5-min Rain = 0
KPVS 211245Z 00000KT 08/07 A3023 RMK A01 T00820066  RH  091%=      5-min Rain = 0
KPVS 211250Z 00000KT 08/07 A3023 RMK A01 T00830067  RH  092%=      5-min Rain = 0
KPVS 211255Z 00000KT 08/07 A3023 RMK A01 T00840067  RH  092%=      5-min Rain = 0
KPVS 211300Z 09000KT 08/07 A3023 RMK A01 T00830065  RH  091%=      5-min Rain = 0
KPVS 211305Z 09000KT 08/07 A3024 RMK A01 T00820065  RH  091%=      5-min Rain = 0
KPVS 211310Z 08001KT 08/07 A3024 RMK A01 T00830066  RH  091%=      5-min Rain = 0
KPVS 211315Z 27001KT 09/07 A3024 RMK A01 T00850067  RH  091%=      5-min Rain = 0
KPVS 211320Z 27000KT 09/07 A3024 RMK A01 T00870069  RH  091%=      5-min Rain = 0
KPVS 211325Z 00000KT 09/07 A3024 RMK A01 T00920074  RH  091%=      5-min Rain = 0
KPVS 211330Z 00000KT 10/08 A3024 RMK A01 T00960075  RH  089%=      5-min Rain = 0
KPVS 211335Z 27001KT 10/08 A3024 RMK A01 T01000077  RH  088%=      5-min Rain = 0
KPVS 211340Z 27000KT 11/08 A3024 RMK A01 T01050077  RH  085%=      5-min Rain = 0
KPVS 211345Z 18001KT 11/08 A3024 RMK A01 T01130080  RH  083%=      5-min Rain = 0
KPVS 211350Z 22001KT 12/08 A3025 RMK A01 T01180080  RH  080%=      5-min Rain = 0
KPVS 211355Z 20001KT 12/08 A3025 RMK A01 T01230083  RH  079%=      5-min Rain = 0
KPVS 211400Z 21001KT 13/08 A3025 RMK A01 T01260084  RH  078%=      5-min Rain = 0
KPVS 211405Z 18002KT 13/09 A3025 RMK A01 T01320087  RH  077%=      5-min Rain = 0
KPVS 211410Z 16002KT 14/09 A3025 RMK A01 T01370089  RH  075%=      5-min Rain = 0
KPVS 211415Z 17003KT 14/09 A3025 RMK A01 T01420090  RH  073%=      5-min Rain = 0
KPVS 211420Z 17004KT 15/09 A3025 RMK A01 T01470092  RH  072%=      5-min Rain = 0
KPVS 211425Z 17004KT 15/09 A3025 RMK A01 T01500093  RH  071%=      5-min Rain = 0
KPVS 211430Z 17003KT 16/10 A3025 RMK A01 T01550096  RH  070%=      5-min Rain = 0
KPVS 211435Z 16005KT 16/10 A3025 RMK A01 T01600096  RH  068%=      5-min Rain = 0
KPVS 211440Z 16007KT 16/10 A3025 RMK A01 T01630095  RH  066%=      5-min Rain = 0
KPVS 211445Z 16004KT 17/10 A3025 RMK A01 T01670096  RH  065%=      5-min Rain = 0
KPVS 211450Z 16005KT 17/10 A3025 RMK A01 T01720095  RH  062%=      5-min Rain = 0
KPVS 211455Z 16005KT 18/09 A3025 RMK A01 T01750093  RH  060%=      5-min Rain = 0
KPVS 211500Z 16005KT 18/09 A3025 RMK A01 T01780093  RH  059%=      5-min Rain = 0
KPVS 211505Z 18007KT 18/09 A3025 RMK A01 T01810090  RH  057%=      5-min Rain = 0
KPVS 211510Z 19007KT 18/09 A3025 RMK A01 T01800089  RH  057%=      5-min Rain = 0
KPVS 211515Z 19007KT 18/09 A3025 RMK A01 T01800089  RH  057%=      5-min Rain = 0
KPVS 211520Z 19007KT 18/09 A3025 RMK A01 T01830088  RH  056%=      5-min Rain = 0
KPVS 211525Z 20007KT 19/09 A3025 RMK A01 T01850088  RH  055%=      5-min Rain = 0
KPVS 211530Z 20008KT 18/09 A3025 RMK A01 T01840087  RH  055%=      5-min Rain = 0
KPVS 211535Z 20008KT 19/09 A3025 RMK A01 T01850088  RH  055%=      5-min Rain = 0
KPVS 211540Z 20007KT 19/09 A3025 RMK A01 T01870089  RH  055%=      5-min Rain = 0
KPVS 211545Z 20006KT 19/09 A3025 RMK A01 T01890091  RH  055%=      5-min Rain = 0
KPVS 211550Z 19004KT 20/09 A3025 RMK A01 T01960092  RH  053%=      5-min Rain = 0
KPVS 211555Z 21006KT 20/09 A3025 RMK A01 T01990092  RH  051%=      5-min Rain = 0
KPVS 211600Z 19006KT 20/09 A3025 RMK A01 T01990092  RH  052%=      5-min Rain = 0
KPVS 211605Z 19005KT 20/09 A3025 RMK A01 T02000091  RH  051%=      5-min Rain = 0
KPVS 211610Z 21006KT 20/09 A3025 RMK A01 T02030090  RH  050%=      5-min Rain = 0
KPVS 211615Z 22005G10KT 20/09 A3025 RMK A01 T02020089  RH  050%=      5-min Rain = 0
KPVS 211620Z 19006KT 21/09 A3025 RMK A01 T02050089  RH  049%=      5-min Rain = 0
KPVS 211625Z 18004KT 21/09 A3025 RMK A01 T02090090  RH  048%=      5-min Rain = 0
KPVS 211630Z 19005KT 21/09 A3025 RMK A01 T02130090  RH  047%=      5-min Rain = 0
KPVS 211635Z 15006KT 22/09 A3025 RMK A01 T02160089  RH  046%=      5-min Rain = 0
KPVS 211640Z 16005KT 22/09 A3025 RMK A01 T02160088  RH  045%=      5-min Rain = 0
KPVS 211645Z 14005KT 22/09 A3025 RMK A01 T02190089  RH  045%=      5-min Rain = 0
KPVS 211650Z 14007KT 22/09 A3025 RMK A01 T02220088  RH  044%=      5-min Rain = 0
KPVS 211655Z 14006KT 22/09 A3025 RMK A01 T02220087  RH  043%=      5-min Rain = 0
KPVS 211700Z 17004KT 22/09 A3025 RMK A01 T02240087  RH  043%=      5-min Rain = 0
KPVS 211705Z 16004G9KT 22/09 A3025 RMK A01 T02240085  RH  042%=      5-min Rain = 0
KPVS 211710Z 16004G9KT 23/09 A3024 RMK A01 T02250085  RH  042%=      5-min Rain = 0
KPVS 211715Z 18006KT 23/08 A3024 RMK A01 T02260084  RH  041%=      5-min Rain = 0
KPVS 211720Z 17002KT 23/08 A3024 RMK A01 T02250084  RH  042%=      5-min Rain = 0
KPVS 211725Z 17006KT 23/08 A3023 RMK A01 T02310084  RH  040%=      5-min Rain = 0
KPVS 211730Z 17005G10KT 23/08 A3023 RMK A01 T02310081  RH  039%=      5-min Rain = 0
KPVS 211735Z 15005KT 23/08 A3023 RMK A01 T02320080  RH  039%=      5-min Rain = 0
KPVS 211740Z 11004KT 24/08 A3023 RMK A01 T02350078  RH  037%=      5-min Rain = 0
KPVS 211745Z 12005G10KT 23/08 A3023 RMK A01 T02340078  RH  038%=      5-min Rain = 0
KPVS 211750Z 16006KT 24/08 A3023 RMK A01 T02360079  RH  038%=      5-min Rain = 0
KPVS 211755Z 15004KT 24/07 A3023 RMK A01 T02370072  RH  036%=      5-min Rain = 0
KPVS 211800Z 10006KT 24/07 A3023 RMK A01 T02370074  RH  036%=      5-min Rain = 0
KPVS 211805Z 09006KT 24/07 A3022 RMK A01 T02370073  RH  036%=      5-min Rain = 0
KPVS 211810Z 13005KT 24/07 A3022 RMK A01 T02370069  RH  035%=      5-min Rain = 0
KPVS 211815Z 10006G11KT 24/07 A3022 RMK A01 T02420071  RH  034%=      5-min Rain = 0
KPVS 211820Z 09006KT 24/07 A3022 RMK A01 T02420071  RH  034%=      5-min Rain = 0
KPVS 211825Z 13003G9KT 24/07 A3022 RMK A01 T02400069  RH  034%=      5-min Rain = 0
KPVS 211830Z 11005KT 24/07 A3021 RMK A01 T02440068  RH  033%=      5-min Rain = 0
KPVS 211835Z 11005KT 25/07 A3021 RMK A01 T02460065  RH  032%=      5-min Rain = 0
KPVS 211840Z 11002KT 25/07 A3021 RMK A01 T02490065  RH  032%=      5-min Rain = 0
KPVS 211845Z 16006KT 26/06 A3021 RMK A01 T02550064  RH  030%=      5-min Rain = 0
KPVS 211850Z 15004KT 25/06 A3021 RMK A01 T02510061  RH  030%=      5-min Rain = 0
KPVS 211855Z 20004KT 25/06 A302 RMK A01 T02490063  RH  031%=      5-min Rain = 0
KPVS 211900Z 23002KT 25/06 A302 RMK A01 T02470063  RH  031%=      5-min Rain = 0
KPVS 211905Z 13005KT 25/07 A302 RMK A01 T02510065  RH  031%=      5-min Rain = 0
KPVS 211910Z 20004KT 25/07 A302 RMK A01 T02500066  RH  031%=      5-min Rain = 0
KPVS 211915Z 18005KT 25/07 A3019 RMK A01 T02540065  RH  031%=      5-min Rain = 0
KPVS 211920Z 11005KT 26/06 A3019 RMK A01 T02550062  RH  030%=      5-min Rain = 0
KPVS 211925Z 06006KT 25/05 A3019 RMK A01 T02540054  RH  028%=      5-min Rain = 0
KPVS 211930Z 07005KT 26/05 A3019 RMK A01 T02550052  RH  028%=      5-min Rain = 0
KPVS 211935Z 12007KT 26/06 A3018 RMK A01 T02600058  RH  028%=      5-min Rain = 0
KPVS 211940Z 13007KT 26/06 A3018 RMK A01 T02580056  RH  028%=      5-min Rain = 0
KPVS 211945Z 10006G13KT 26/05 A3018 RMK A01 T02610049  RH  026%=      5-min Rain = 0
KPVS 211950Z 14005G10KT 26/05 A3018 RMK A01 T02600045  RH  026%=      5-min Rain = 0
KPVS 211955Z 14005KT 26/05 A3018 RMK A01 T02590047  RH  026%=      5-min Rain = 0
KPVS 212000Z 14005KT 26/05 A3017 RMK A01 T02590053  RH  027%=      5-min Rain = 0
KPVS 212005Z 18004KT 26/06 A3017 RMK A01 T02630058  RH  028%=      5-min Rain = 0
KPVS 212010Z 12005KT 27/06 A3017 RMK A01 T02660059  RH  027%=      5-min Rain = 0
KPVS 212015Z 10005KT 26/06 A3017 RMK A01 T02620057  RH  028%=      5-min Rain = 0
KPVS 212020Z 07004KT 26/06 A3016 RMK A01 T02610056  RH  028%=      5-min Rain = 0
KPVS 212025Z 06005KT 26/06 A3016 RMK A01 T02620056  RH  027%=      5-min Rain = 0
KPVS 212030Z 10005KT 26/06 A3016 RMK A01 T02630056  RH  027%=      5-min Rain = 0
KPVS 212035Z 06003KT 26/06 A3015 RMK A01 T02610057  RH  028%=      5-min Rain = 0
KPVS 212040Z 08006KT 26/05 A3015 RMK A01 T02640052  RH  026%=      5-min Rain = 0
KPVS 212045Z 08007G12KT 27/05 A3015 RMK A01 T02670047  RH  025%=      5-min Rain = 0
KPVS 212050Z 09005KT 27/05 A3015 RMK A01 T02690052  RH  026%=      5-min Rain = 0
KPVS 212055Z 16003KT 27/06 A3015 RMK A01 T02730055  RH  026%=      5-min Rain = 0
KPVS 212100Z 14006KT 27/05 A3015 RMK A01 T02730048  RH  024%=      5-min Rain = 0
KPVS 212105Z 13004G10KT 27/04 A3015 RMK A01 T02710040  RH  023%=      5-min Rain = 0
KPVS 212110Z 12007KT 27/05 A3015 RMK A01 T02740047  RH  024%=      5-min Rain = 0
KPVS 212115Z 12007KT 27/05 A3014 RMK A01 T02730046  RH  024%=      5-min Rain = 0
KPVS 212120Z 14005KT 27/05 A3014 RMK A01 T02720048  RH  024%=      5-min Rain = 0
KPVS 212125Z 17005KT 27/05 A3014 RMK A01 T02710051  RH  025%=      5-min Rain = 0
KPVS 212130Z 12004G10KT 27/05 A3014 RMK A01 T02730050  RH  025%=      5-min Rain = 0
KPVS 212135Z 15004KT 28/05 A3014 RMK A01 T02760049  RH  024%=      5-min Rain = 0
KPVS 212140Z 13008KT 28/04 A3014 RMK A01 T02760037  RH  022%=      5-min Rain = 0
KPVS 212145Z 11004G9KT 27/04 A3014 RMK A01 T02740037  RH  022%=      5-min Rain = 0
KPVS 212150Z 16007KT 28/04 A3013 RMK A01 T02750040  RH  023%=      5-min Rain = 0
KPVS 212155Z 15006KT 28/04 A3013 RMK A01 T02750037  RH  022%=      5-min Rain = 0
KPVS 212200Z 11006KT 28/04 A3013 RMK A01 T02760037  RH  022%=      5-min Rain = 0
KPVS 212205Z 17006KT 28/04 A3013 RMK A01 T02750041  RH  023%=      5-min Rain = 0
KPVS 212210Z 18003KT 27/04 A3013 RMK A01 T02730040  RH  023%=      5-min Rain = 0
KPVS 212215Z 11006KT 28/05 A3013 RMK A01 T02770045  RH  023%=      5-min Rain = 0
KPVS 212220Z 10007KT 28/05 A3013 RMK A01 T02760049  RH  024%=      5-min Rain = 0
KPVS 212225Z 13004KT 27/05 A3012 RMK A01 T02730047  RH  024%=      5-min Rain = 0
KPVS 212230Z 12006G11KT 27/05 A3012 RMK A01 T02740049  RH  024%=      5-min Rain = 0
KPVS 212235Z 14007KT 27/05 A3012 RMK A01 T02740051  RH  025%=      5-min Rain = 0
KPVS 212240Z 13009KT 27/05 A3012 RMK A01 T02720053  RH  025%=      5-min Rain = 0
KPVS 212245Z 13006KT 27/05 A3012 RMK A01 T02700052  RH  025%=      5-min Rain = 0
KPVS 212250Z 15006G11KT 27/05 A3012 RMK A01 T02700054  RH  026%=      5-min Rain = 0
KPVS 212255Z 17006KT 27/06 A3012 RMK A01 T02690056  RH  026%=      5-min Rain = 0
KPVS 212300Z 13006KT 27/06 A3012 RMK A01 T02690057  RH  026%=      5-min Rain = 0
KPVS 212305Z 15006KT 27/06 A3012 RMK A01 T02680058  RH  027%=      5-min Rain = 0
KPVS 212310Z 15007G13KT 27/06 A3012 RMK A01 T02690055  RH  026%=      5-min Rain = 0
KPVS 212315Z 17007KT 27/06 A3012 RMK A01 T02690056  RH  026%=      5-min Rain = 0
KPVS 212320Z 14006KT 27/06 A3012 RMK A01 T02680056  RH  026%=      5-min Rain = 0
KPVS 212325Z 14009KT 27/06 A3012 RMK A01 T02660062  RH  028%=      5-min Rain = 0
KPVS 212330Z 13007G12KT 27/06 A3012 RMK A01 T02650064  RH  028%=      5-min Rain = 0
KPVS 212335Z 15006KT 26/07 A3012 RMK A01 T02640065  RH  029%=      5-min Rain = 0
KPVS 212340Z 14006KT 26/06 A3012 RMK A01 T02630063  RH  028%=      5-min Rain = 0
KPVS 212345Z 15007KT 26/06 A3013 RMK A01 T02630063  RH  029%=      5-min Rain = 0
KPVS 212350Z 16005KT 26/06 A3013 RMK A01 T02620064  RH  029%=      5-min Rain = 0
KPVS 212355Z 16005KT 26/06 A3013 RMK A01 T02610064  RH  029%=      5-min Rain = 0
KPVS 220000Z 14006KT 26/07 A3013 RMK A01 T02600065  RH  030%=      5-min Rain = 0
KPVS 220005Z 14007KT 26/07 A3013 RMK A01 T02590067  RH  030%=      5-min Rain = 0
KPVS 220010Z 14006KT 26/07 A3013 RMK A01 T02570068  RH  031%=      5-min Rain = 0
KPVS 220015Z 14006KT 26/07 A3013 RMK A01 T02560068  RH  031%=      5-min Rain = 0
KPVS 220020Z 15005KT 25/07 A3013 RMK A01 T02540069  RH  032%=      5-min Rain = 0
KPVS 220025Z 14006KT 25/07 A3013 RMK A01 T02510073  RH  033%=      5-min Rain = 0
KPVS 220030Z 14005KT 25/07 A3013 RMK A01 T02500074  RH  033%=      5-min Rain = 0
KPVS 220035Z 14005KT 25/08 A3013 RMK A01 T02470075  RH  034%=      5-min Rain = 0
KPVS 220040Z 15005KT 25/08 A3014 RMK A01 T02450078  RH  035%=      5-min Rain = 0
KPVS 220045Z 14005KT 24/08 A3014 RMK A01 T02420080  RH  036%=      5-min Rain = 0
KPVS 220050Z 14006KT 24/08 A3014 RMK A01 T02400080  RH  037%=      5-min Rain = 0
KPVS 220055Z 13007KT 24/08 A3014 RMK A01 T02380081  RH  037%=      5-min Rain = 0
KPVS 220100Z 12008KT 24/09 A3014 RMK A01 T02350086  RH  040%=      5-min Rain = 0
KPVS 220105Z 12007KT 23/09 A3014 RMK A01 T02310090  RH  042%=      5-min Rain = 0
KPVS 220110Z 12007KT 23/09 A3014 RMK A01 T02270094  RH  044%=      5-min Rain = 0
KPVS 220115Z 10005KT 22/09 A3015 RMK A01 T02200094  RH  046%=      5-min Rain = 0
KPVS 220120Z 10006KT 21/10 A3015 RMK A01 T02140096  RH  048%=      5-min Rain = 0
KPVS 220125Z 11006KT 21/10 A3015 RMK A01 T02110099  RH  050%=      5-min Rain = 0
KPVS 220130Z 12006KT 21/10 A3015 RMK A01 T02100100  RH  051%=      5-min Rain = 0
KPVS 220135Z 12006KT 21/10 A3015 RMK A01 T02120101  RH  051%=      5-min Rain = 0
KPVS 220140Z 12006KT 21/10 A3015 RMK A01 T02120102  RH  051%=      5-min Rain = 0
KPVS 220145Z 12006KT 21/10 A3015 RMK A01 T02100102  RH  052%=      5-min Rain = 0
KPVS 220150Z 12006KT 21/10 A3015 RMK A01 T02080101  RH  052%=      5-min Rain = 0
KPVS 220155Z 10006KT 21/10 A3016 RMK A01 T02060101  RH  053%=      5-min Rain = 0
KPVS 220200Z 11005KT 20/10 A3016 RMK A01 T02000101  RH  055%=      5-min Rain = 0
KPVS 220205Z 11005KT 20/10 A3016 RMK A01 T01960101  RH  056%=      5-min Rain = 0
KPVS 220210Z 11006KT 19/10 A3017 RMK A01 T01940101  RH  057%=      5-min Rain = 0
KPVS 220215Z 12007KT 19/10 A3017 RMK A01 T01940101  RH  057%=      5-min Rain = 0
KPVS 220220Z 12006KT 19/10 A3017 RMK A01 T01930100  RH  057%=      5-min Rain = 0
KPVS 220225Z 12006KT 19/10 A3017 RMK A01 T01920100  RH  057%=      5-min Rain = 0
KPVS 220230Z 13006KT 19/10 A3018 RMK A01 T01900101  RH  058%=      5-min Rain = 0
KPVS 220235Z 12007KT 19/10 A3018 RMK A01 T01880100  RH  059%=      5-min Rain = 0
KPVS 220240Z 12006KT 19/10 A3018 RMK A01 T01860099  RH  059%=      5-min Rain = 0
KPVS 220245Z 12006KT 18/10 A3018 RMK A01 T01840099  RH  060%=      5-min Rain = 0
KPVS 220250Z 13005KT 18/10 A3018 RMK A01 T01820099  RH  060%=      5-min Rain = 0
KPVS 220255Z 12006KT 18/10 A3018 RMK A01 T01810098  RH  060%=      5-min Rain = 0
KPVS 220300Z 12006KT 18/10 A3019 RMK A01 T01800099  RH  061%=      5-min Rain = 0
KPVS 220305Z 12005KT 18/10 A3019 RMK A01 T01780098  RH  062%=      5-min Rain = 0
KPVS 220310Z 13005KT 18/10 A3019 RMK A01 T01770098  RH  062%=      5-min Rain = 0
KPVS 220315Z 12006KT 18/10 A3019 RMK A01 T01750099  RH  063%=      5-min Rain = 0
KPVS 220320Z 12005KT 17/10 A3019 RMK A01 T01740099  RH  063%=      5-min Rain = 0
KPVS 220325Z 12006KT 17/10 A3019 RMK A01 T01730099  RH  064%=      5-min Rain = 0
KPVS 220330Z 12006KT 17/10 A3019 RMK A01 T01720099  RH  064%=      5-min Rain = 0
KPVS 220335Z 12006KT 17/10 A3019 RMK A01 T01700099  RH  065%=      5-min Rain = 0
KPVS 220340Z 12005KT 17/10 A3019 RMK A01 T01690099  RH  065%=      5-min Rain = 0
KPVS 220345Z 11005KT 17/10 A3019 RMK A01 T01670099  RH  066%=      5-min Rain = 0
KPVS 220350Z 12005KT 17/10 A3019 RMK A01 T01650100  RH  068%=      5-min Rain = 0
KPVS 220355Z 11004KT 16/10 A3019 RMK A01 T01630098  RH  068%=      5-min Rain = 0
KPVS 220400Z 11004KT 16/10 A3019 RMK A01 T01600098  RH  069%=      5-min Rain = 0
KPVS 220405Z 11005KT 16/10 A3019 RMK A01 T01590099  RH  070%=      5-min Rain = 0
KPVS 220410Z 12005KT 16/10 A3019 RMK A01 T01580097  RH  070%=      5-min Rain = 0
KPVS 220415Z 13005KT 16/10 A3019 RMK A01 T01570097  RH  070%=      5-min Rain = 0
KPVS 220420Z 12005KT 16/10 A3019 RMK A01 T01570098  RH  070%=      5-min Rain = 0
KPVS 220425Z 13005KT 16/10 A3019 RMK A01 T01570098  RH  070%=      5-min Rain = 0
KPVS 220430Z 12005KT 16/10 A3019 RMK A01 T01560098  RH  071%=      5-min Rain = 0
KPVS 220435Z 12005KT 16/10 A3019 RMK A01 T01550099  RH  072%=      5-min Rain = 0
KPVS 220440Z 12004KT 15/10 A3019 RMK A01 T01520097  RH  072%=      5-min Rain = 0
KPVS 220445Z 11004KT 15/10 A302 RMK A01 T01500096  RH  072%=      5-min Rain = 0
KPVS 220450Z 11004KT 15/10 A302 RMK A01 T01470096  RH  074%=      5-min Rain = 0
KPVS 220455Z 11004KT 15/10 A302 RMK A01 T01460096  RH  074%=      5-min Rain = 0

Page generated in 0.017 seconds.